Time;durP1;ratioP1;P1;durP2;ratioP2;P2;SDS_P1;SDS_P2;PMS_P1;PMS_P2;Temp;Humidity;BMP_temperature;BMP_pressure;BME280_temperature;BME280_humidity;BME280_pressure;Samples;Min_cycle;Max_cycle;Signal;HPM_P1;HPM_P2
2021/06/29 00:00:54;;;;;;;10.68;9.70;;;;;;;;;;5117053;27;20203;-71
2021/06/29 00:03:22;;;;;;;11.10;10.18;;;;;;;;;;5114787;28;20251;-70
2021/06/29 00:05:50;;;;;;;10.65;9.55;;;;;;;;;;5114604;28;20191;-70
2021/06/29 00:08:18;;;;;;;11.00;10.10;;;;;;;;;;5114716;28;20203;-69
2021/06/29 00:10:48;;;;;;;11.10;10.23;;;;;;;;;;5115032;28;20234;-69
2021/06/29 00:13:18;;;;;;;9.95;9.15;;;;;;;;;;5114944;28;20219;-69
2021/06/29 00:15:47;;;;;;;10.10;9.30;;;;;;;;;;5114482;28;20211;-69
2021/06/29 00:18:15;;;;;;;10.93;10.02;;;;;;;;;;5114981;28;20195;-70
2021/06/29 00:20:43;;;;;;;10.75;9.75;;;;;;;;;;5114305;28;20206;-69
2021/06/29 00:23:11;;;;;;;10.95;10.00;;;;;;;;;;5114733;28;20195;-70
2021/06/29 00:25:39;;;;;;;11.32;10.32;;;;;;;;;;5114701;28;20298;-67
2021/06/29 00:28:09;;;;;;;11.55;10.55;;;;;;;;;;5114525;28;20298;-68
2021/06/29 00:30:37;;;;;;;11.00;9.82;;;;;;;;;;5114677;28;20299;-67
2021/06/29 00:33:05;;;;;;;11.57;10.60;;;;;;;;;;5114701;28;20553;-68
2021/06/29 00:35:34;;;;;;;10.98;9.98;;;;;;;;;;5113799;28;20231;-68
2021/06/29 00:38:02;;;;;;;10.57;9.68;;;;;;;;;;5114427;28;20195;-69
2021/06/29 00:40:31;;;;;;;11.63;10.50;;;;;;;;;;5113998;28;20696;-68
2021/06/29 00:42:59;;;;;;;11.38;10.48;;;;;;;;;;5113052;28;20215;-68
2021/06/29 00:45:29;;;;;;;11.20;10.20;;;;;;;;;;5114047;28;20404;-69
2021/06/29 00:47:57;;;;;;;11.30;10.30;;;;;;;;;;5114427;28;20205;-68
2021/06/29 00:50:25;;;;;;;12.48;11.38;;;;;;;;;;5113542;28;20231;-68
2021/06/29 00:52:54;;;;;;;11.73;10.73;;;;;;;;;;5116571;28;20290;-68
2021/06/29 00:55:22;;;;;;;12.20;11.20;;;;;;;;;;5115544;28;20288;-69
2021/06/29 00:57:51;;;;;;;12.38;11.38;;;;;;;;;;5114840;28;20574;-68
2021/06/29 01:00:20;;;;;;;12.93;11.63;;;;;;;;;;5113839;28;20252;-69
2021/06/29 01:02:50;;;;;;;12.18;11.18;;;;;;;;;;5113976;28;20199;-67
2021/06/29 01:05:18;;;;;;;12.68;11.57;;;;;;;;;;5113691;28;20323;-68
2021/06/29 01:07:47;;;;;;;13.15;11.98;;;;;;;;;;5113415;28;20656;-67
2021/06/29 01:10:15;;;;;;;12.48;11.48;;;;;;;;;;5113845;28;20205;-68
2021/06/29 01:12:43;;;;;;;13.05;11.90;;;;;;;;;;5113865;28;20660;-67
2021/06/29 01:15:12;;;;;;;12.23;11.13;;;;;;;;;;5113156;28;20254;-67
2021/06/29 01:17:41;;;;;;;12.45;11.35;;;;;;;;;;5110927;28;20298;-68
2021/06/29 01:20:14;;;;;;;12.35;11.35;;;;;;;;;;5113536;28;20204;-68
2021/06/29 01:22:42;;;;;;;13.10;12.10;;;;;;;;;;5113550;28;20234;-68
2021/06/29 01:25:11;;;;;;;12.02;10.80;;;;;;;;;;5113523;28;20637;-68
2021/06/29 01:27:48;;;;;;;13.30;11.43;;;;;;;;;;5113795;28;20206;-68
2021/06/29 01:33:03;;;;;;;12.52;11.38;;;;;;;;;;5113541;28;20824;-67
2021/06/29 01:35:33;;;;;;;12.15;11.00;;;;;;;;;;5112869;28;20203;-68
2021/06/29 01:38:01;;;;;;;11.85;10.75;;;;;;;;;;5113577;28;20278;-68
2021/06/29 01:40:31;;;;;;;11.57;10.10;;;;;;;;;;5113468;28;20706;-67
2021/06/29 01:43:00;;;;;;;10.27;9.32;;;;;;;;;;5113061;28;20710;-69
2021/06/29 01:45:29;;;;;;;10.68;9.60;;;;;;;;;;5113220;28;20215;-68
2021/06/29 01:48:01;;;;;;;10.68;9.57;;;;;;;;;;5113358;28;20512;-67
2021/06/29 01:50:29;;;;;;;10.23;9.25;;;;;;;;;;5127638;27;20716;-68
2021/06/29 01:53:00;;;;;;;10.45;9.50;;;;;;;;;;5133525;27;20198;-70
2021/06/29 01:55:29;;;;;;;10.65;8.68;;;;;;;;;;5133278;27;20212;-68
2021/06/29 01:57:59;;;;;;;9.07;8.23;;;;;;;;;;5133275;27;20219;-67
2021/06/29 02:00:27;;;;;;;9.38;8.48;;;;;;;;;;5132941;27;20285;-68
2021/06/29 02:02:55;;;;;;;10.73;8.57;;;;;;;;;;5133590;27;20199;-68
2021/06/29 02:05:24;;;;;;;9.52;8.52;;;;;;;;;;5132759;27;20542;-69
2021/06/29 02:07:52;;;;;;;8.57;7.28;;;;;;;;;;5132719;27;20218;-68
2021/06/29 02:10:22;;;;;;;7.63;7.00;;;;;;;;;;5133197;27;20240;-68
2021/06/29 02:12:50;;;;;;;7.20;6.53;;;;;;;;;;5133441;27;20301;-68
2021/06/29 02:15:20;;;;;;;7.88;6.35;;;;;;;;;;5132927;27;20198;-68
2021/06/29 02:17:48;;;;;;;5.57;5.07;;;;;;;;;;5132728;27;20221;-67
2021/06/29 02:20:17;;;;;;;4.85;4.45;;;;;;;;;;5133541;27;20201;-67
2021/06/29 02:22:46;;;;;;;4.72;4.13;;;;;;;;;;5132902;27;20199;-69
2021/06/29 02:25:15;;;;;;;4.95;4.05;;;;;;;;;;5132868;27;20202;-68
2021/06/29 02:27:44;;;;;;;5.18;3.47;;;;;;;;;;5132738;27;20909;-68
2021/06/29 02:30:13;;;;;;;3.60;3.30;;;;;;;;;;5132813;27;20298;-67
2021/06/29 02:32:41;;;;;;;6.22;2.92;;;;;;;;;;5132760;27;20746;-67
2021/06/29 02:35:10;;;;;;;5.50;3.10;;;;;;;;;;5132959;27;20303;-68
2021/06/29 02:37:38;;;;;;;3.47;3.17;;;;;;;;;;5132683;27;20219;-68
2021/06/29 02:40:09;;;;;;;3.53;2.90;;;;;;;;;;5132820;27;20201;-67
2021/06/29 02:42:38;;;;;;;4.15;2.58;;;;;;;;;;5132596;27;20609;-67
2021/06/29 02:45:08;;;;;;;4.25;2.70;;;;;;;;;;5132743;28;20627;-67
2021/06/29 02:47:37;;;;;;;2.65;2.22;;;;;;;;;;5132497;28;20645;-68
2021/06/29 02:50:06;;;;;;;4.05;2.00;;;;;;;;;;5132514;28;20226;-68
2021/06/29 02:52:35;;;;;;;2.08;1.67;;;;;;;;;;5132228;28;20198;-68
2021/06/29 02:55:04;;;;;;;3.67;2.10;;;;;;;;;;5132756;28;20202;-68
2021/06/29 02:57:32;;;;;;;2.92;1.73;;;;;;;;;;5132385;28;20317;-67
2021/06/29 03:00:00;;;;;;;4.28;1.42;;;;;;;;;;5132217;28;20198;-67
2021/06/29 03:02:30;;;;;;;3.08;1.40;;;;;;;;;;5132843;28;20218;-68
2021/06/29 03:04:58;;;;;;;2.70;1.50;;;;;;;;;;5132490;27;20206;-68
2021/06/29 03:07:26;;;;;;;1.73;1.35;;;;;;;;;;5135903;27;20285;-69
2021/06/29 03:09:55;;;;;;;1.88;1.23;;;;;;;;;;5136658;27;20204;-68
2021/06/29 03:12:23;;;;;;;2.80;1.30;;;;;;;;;;5136630;27;20301;-68
2021/06/29 03:14:55;;;;;;;1.55;1.23;;;;;;;;;;5136449;27;20194;-67
2021/06/29 03:17:23;;;;;;;1.30;1.20;;;;;;;;;;5132761;27;20210;-68
2021/06/29 03:19:53;;;;;;;2.67;1.10;;;;;;;;;;5136158;27;20234;-68
2021/06/29 03:22:21;;;;;;;1.58;1.20;;;;;;;;;;5136012;27;20242;-69
2021/06/29 03:24:50;;;;;;;3.42;1.50;;;;;;;;;;5136357;27;20222;-67
2021/06/29 03:27:18;;;;;;;1.15;1.05;;;;;;;;;;5136286;27;20285;-68
2021/06/29 03:29:46;;;;;;;1.30;1.20;;;;;;;;;;5136279;27;20201;-68
2021/06/29 03:32:14;;;;;;;1.42;1.20;;;;;;;;;;5135566;27;20205;-68
2021/06/29 03:34:43;;;;;;;1.67;1.23;;;;;;;;;;5136264;27;20202;-68
2021/06/29 03:37:12;;;;;;;1.20;1.10;;;;;;;;;;5135678;27;20697;-68
2021/06/29 03:39:41;;;;;;;3.70;1.50;;;;;;;;;;5135992;27;20302;-68
2021/06/29 03:42:09;;;;;;;3.28;1.45;;;;;;;;;;5135917;27;20287;-68
2021/06/29 03:44:37;;;;;;;2.47;1.30;;;;;;;;;;5135507;27;20237;-68
2021/06/29 03:47:05;;;;;;;1.48;1.33;;;;;;;;;;5135520;27;20293;-68
2021/06/29 03:49:34;;;;;;;2.63;1.30;;;;;;;;;;5135501;27;20227;-68
2021/06/29 03:52:02;;;;;;;2.50;1.23;;;;;;;;;;5135746;27;20277;-68
2021/06/29 03:54:31;;;;;;;1.40;1.30;;;;;;;;;;5135834;27;20205;-69
2021/06/29 03:56:59;;;;;;;1.23;1.13;;;;;;;;;;5135548;27;20203;-68
2021/06/29 03:59:28;;;;;;;1.52;1.27;;;;;;;;;;5135406;27;20202;-68
2021/06/29 04:01:56;;;;;;;1.50;1.40;;;;;;;;;;5135080;27;20199;-68
2021/06/29 04:04:24;;;;;;;1.83;1.50;;;;;;;;;;5135326;27;20198;-68
2021/06/29 04:06:53;;;;;;;2.60;1.40;;;;;;;;;;5135101;27;20289;-67
2021/06/29 04:09:21;;;;;;;1.42;1.30;;;;;;;;;;5135349;27;20209;-67
2021/06/29 04:11:51;;;;;;;1.60;1.50;;;;;;;;;;5134975;27;20241;-67
2021/06/29 04:14:19;;;;;;;2.25;1.58;;;;;;;;;;5135109;27;20207;-68
2021/06/29 04:16:47;;;;;;;3.40;1.45;;;;;;;;;;5134767;27;20298;-68
2021/06/29 04:19:15;;;;;;;3.67;1.40;;;;;;;;;;5134858;27;20575;-67
2021/06/29 04:21:43;;;;;;;4.30;1.67;;;;;;;;;;5134772;27;20237;-67
2021/06/29 04:24:12;;;;;;;3.78;1.70;;;;;;;;;;5135241;27;20585;-67
2021/06/29 04:26:40;;;;;;;2.00;1.77;;;;;;;;;;5135146;27;20282;-67
2021/06/29 04:29:10;;;;;;;3.53;1.50;;;;;;;;;;5134701;27;20682;-68
2021/06/29 04:31:41;;;;;;;2.45;1.50;;;;;;;;;;5134370;27;20635;-69
2021/06/29 04:34:09;;;;;;;3.58;1.50;;;;;;;;;;5134630;27;20301;-69
2021/06/29 04:36:37;;;;;;;1.98;1.33;;;;;;;;;;5134522;27;20248;-67
2021/06/29 04:39:06;;;;;;;15.85;14.25;;;;;;;;;;5134309;27;20222;-70
2021/06/29 04:41:35;;;;;;;2.42;2.00;;;;;;;;;;5133991;27;20291;-69
2021/06/29 04:44:03;;;;;;;4.47;3.33;;;;;;;;;;5134175;27;20209;-68
2021/06/29 04:46:33;;;;;;;3.42;2.45;;;;;;;;;;5133906;27;20198;-68
2021/06/29 04:49:01;;;;;;;2.25;1.70;;;;;;;;;;5134311;27;20759;-69
2021/06/29 04:51:29;;;;;;;1.70;1.30;;;;;;;;;;5134540;27;20179;-68
2021/06/29 04:53:57;;;;;;;3.33;2.03;;;;;;;;;;5134481;27;20285;-69
2021/06/29 04:56:26;;;;;;;2.08;1.50;;;;;;;;;;5134213;27;20209;-70
2021/06/29 04:58:54;;;;;;;1.77;1.67;;;;;;;;;;5134272;27;20225;-69
2021/06/29 05:01:22;;;;;;;1.55;1.38;;;;;;;;;;5133828;27;20642;-69
2021/06/29 05:03:52;;;;;;;4.63;1.92;;;;;;;;;;5133977;27;20655;-69
2021/06/29 05:06:20;;;;;;;2.55;2.20;;;;;;;;;;5133903;27;20190;-69
2021/06/29 05:08:49;;;;;;;4.13;1.75;;;;;;;;;;5133762;27;20283;-69
2021/06/29 05:11:17;;;;;;;1.50;1.40;;;;;;;;;;5134631;27;20209;-69
2021/06/29 05:13:45;;;;;;;2.85;1.52;;;;;;;;;;5134750;27;20228;-70
2021/06/29 05:16:14;;;;;;;2.05;1.48;;;;;;;;;;5135016;27;20297;-70
2021/06/29 05:18:42;;;;;;;2.25;1.75;;;;;;;;;;5136702;27;20217;-71
2021/06/29 05:21:11;;;;;;;2.22;1.55;;;;;;;;;;5138013;27;20248;-71
2021/06/29 05:23:40;;;;;;;2.70;1.75;;;;;;;;;;5136382;27;20197;-69
2021/06/29 05:26:08;;;;;;;2.72;1.55;;;;;;;;;;5134558;27;20289;-70
2021/06/29 05:28:36;;;;;;;3.08;1.70;;;;;;;;;;5133959;27;20211;-70
2021/06/29 05:31:05;;;;;;;2.03;1.65;;;;;;;;;;5131720;27;20260;-69
2021/06/29 05:33:33;;;;;;;4.20;2.00;;;;;;;;;;5134366;27;20190;-69
2021/06/29 05:36:01;;;;;;;4.22;1.80;;;;;;;;;;5134122;27;20206;-70
2021/06/29 05:38:31;;;;;;;3.58;1.65;;;;;;;;;;5134301;27;20219;-69
2021/06/29 05:40:59;;;;;;;2.90;1.45;;;;;;;;;;5134198;27;20669;-68
2021/06/29 05:43:27;;;;;;;3.65;1.50;;;;;;;;;;5134322;27;20298;-69
2021/06/29 05:45:55;;;;;;;2.65;1.80;;;;;;;;;;5134105;27;20203;-70
2021/06/29 05:48:26;;;;;;;3.72;1.63;;;;;;;;;;5133658;27;20195;-70
2021/06/29 05:50:54;;;;;;;6.28;2.00;;;;;;;;;;5134212;27;20329;-68
2021/06/29 05:53:22;;;;;;;4.55;2.00;;;;;;;;;;5134090;27;20294;-69
2021/06/29 05:55:52;;;;;;;1.50;1.40;;;;;;;;;;5133842;27;20198;-69
2021/06/29 05:58:20;;;;;;;2.75;1.80;;;;;;;;;;5128644;27;20214;-70
2021/06/29 06:00:48;;;;;;;2.25;1.73;;;;;;;;;;5130351;27;20289;-70
2021/06/29 06:03:16;;;;;;;3.03;1.63;;;;;;;;;;5115564;27;20192;-69
2021/06/29 06:05:44;;;;;;;2.20;1.80;;;;;;;;;;5113632;28;20206;-70
2021/06/29 06:08:13;;;;;;;2.65;1.65;;;;;;;;;;5113160;28;20210;-69
2021/06/29 06:10:41;;;;;;;2.20;1.67;;;;;;;;;;5132868;27;20203;-70
2021/06/29 06:13:10;;;;;;;3.38;1.70;;;;;;;;;;5133420;27;20301;-69
2021/06/29 06:15:39;;;;;;;2.85;1.52;;;;;;;;;;5132701;27;20208;-69
2021/06/29 06:18:08;;;;;;;2.80;1.70;;;;;;;;;;5133706;27;20205;-69
2021/06/29 06:20:36;;;;;;;3.80;1.67;;;;;;;;;;5122735;27;20197;-69
2021/06/29 06:23:06;;;;;;;3.80;1.95;;;;;;;;;;5116025;27;20200;-69
2021/06/29 06:25:34;;;;;;;2.13;1.50;;;;;;;;;;5113356;28;20191;-70
2021/06/29 06:28:03;;;;;;;1.92;1.77;;;;;;;;;;5113412;28;20203;-70
2021/06/29 06:30:32;;;;;;;2.10;1.60;;;;;;;;;;5113736;28;20617;-70
2021/06/29 06:33:01;;;;;;;2.08;1.85;;;;;;;;;;5133716;27;20267;-68
2021/06/29 06:35:29;;;;;;;2.20;1.90;;;;;;;;;;5133653;27;20198;-69
2021/06/29 06:37:57;;;;;;;4.50;1.85;;;;;;;;;;5132937;27;20202;-69
2021/06/29 06:40:25;;;;;;;3.33;1.90;;;;;;;;;;5133508;27;20314;-71
2021/06/29 06:42:54;;;;;;;2.70;1.60;;;;;;;;;;5133786;27;20293;-69
2021/06/29 06:45:24;;;;;;;2.17;1.52;;;;;;;;;;5133679;27;20289;-69
2021/06/29 06:47:53;;;;;;;3.00;1.83;;;;;;;;;;5133686;28;20205;-71
2021/06/29 06:50:22;;;;;;;2.78;1.70;;;;;;;;;;5133541;28;20246;-68
2021/06/29 06:52:51;;;;;;;2.15;1.95;;;;;;;;;;5133513;28;20285;-69
2021/06/29 06:55:24;;;;;;;2.17;1.98;;;;;;;;;;5133689;28;20317;-69
2021/06/29 06:57:52;;;;;;;2.85;1.88;;;;;;;;;;5133728;28;20179;-70
2021/06/29 07:00:21;;;;;;;3.97;2.13;;;;;;;;;;5119551;28;20306;-69
2021/06/29 07:02:50;;;;;;;4.03;2.40;;;;;;;;;;5112950;28;20252;-69
2021/06/29 07:05:19;;;;;;;3.15;2.20;;;;;;;;;;5113110;28;20199;-69
2021/06/29 07:07:47;;;;;;;2.63;2.40;;;;;;;;;;5112785;28;20205;-70
2021/06/29 07:10:16;;;;;;;2.67;2.20;;;;;;;;;;5113027;28;20294;-69
2021/06/29 07:12:44;;;;;;;3.53;2.08;;;;;;;;;;5113002;28;20205;-69
2021/06/29 07:15:12;;;;;;;4.47;1.98;;;;;;;;;;5113033;28;20200;-70
2021/06/29 07:17:41;;;;;;;3.88;1.65;;;;;;;;;;5112599;28;20643;-70
2021/06/29 07:20:10;;;;;;;2.97;1.80;;;;;;;;;;5112773;28;20319;-68
2021/06/29 07:22:39;;;;;;;3.28;2.35;;;;;;;;;;5112450;28;20195;-69
2021/06/29 07:25:08;;;;;;;3.20;2.00;;;;;;;;;;5112899;28;20294;-69
2021/06/29 07:27:37;;;;;;;3.10;2.10;;;;;;;;;;5112901;28;20303;-68
2021/06/29 07:30:05;;;;;;;2.30;1.95;;;;;;;;;;5112686;28;20203;-68
2021/06/29 07:32:33;;;;;;;2.20;2.00;;;;;;;;;;5112693;28;20238;-68
2021/06/29 07:35:02;;;;;;;6.05;2.22;;;;;;;;;;5112743;28;20276;-67
2021/06/29 07:37:33;;;;;;;2.53;1.98;;;;;;;;;;5112523;28;20535;-68
2021/06/29 07:40:03;;;;;;;3.03;1.90;;;;;;;;;;5112738;28;20310;-69
2021/06/29 07:42:31;;;;;;;2.53;1.90;;;;;;;;;;5112460;28;20631;-68
2021/06/29 07:44:59;;;;;;;2.83;2.10;;;;;;;;;;5112606;28;20589;-69
2021/06/29 07:47:27;;;;;;;1.90;1.80;;;;;;;;;;5112484;28;20206;-69
2021/06/29 07:49:55;;;;;;;2.40;2.20;;;;;;;;;;5122603;28;20322;-68
2021/06/29 07:52:24;;;;;;;4.07;2.13;;;;;;;;;;5134667;27;20293;-67
2021/06/29 07:54:56;;;;;;;3.65;1.85;;;;;;;;;;5137036;27;20275;-69
2021/06/29 07:57:26;;;;;;;4.32;2.17;;;;;;;;;;5137044;27;20203;-68
2021/06/29 07:59:54;;;;;;;2.50;1.88;;;;;;;;;;5136333;27;20306;-70
2021/06/29 08:02:22;;;;;;;3.67;2.42;;;;;;;;;;5136552;27;20228;-68
2021/06/29 08:04:51;;;;;;;3.90;2.17;;;;;;;;;;5136636;27;20205;-69
2021/06/29 08:07:19;;;;;;;3.22;2.25;;;;;;;;;;5136479;27;20227;-67
2021/06/29 08:09:47;;;;;;;2.17;2.00;;;;;;;;;;5136434;27;20226;-68
2021/06/29 08:12:17;;;;;;;4.10;2.40;;;;;;;;;;5136420;27;20248;-67
2021/06/29 08:14:47;;;;;;;2.75;2.08;;;;;;;;;;5136176;27;20221;-68
2021/06/29 08:17:15;;;;;;;2.25;2.08;;;;;;;;;;5136536;27;20229;-68
2021/06/29 08:19:43;;;;;;;2.40;2.20;;;;;;;;;;5136051;27;20255;-67
2021/06/29 08:22:11;;;;;;;4.20;2.10;;;;;;;;;;5136239;27;20290;-69
2021/06/29 08:24:40;;;;;;;4.22;2.67;;;;;;;;;;5135905;27;20208;-69
2021/06/29 08:27:08;;;;;;;2.22;1.98;;;;;;;;;;5136540;27;20339;-69
2021/06/29 08:29:36;;;;;;;3.53;2.33;;;;;;;;;;5137195;27;20210;-69
2021/06/29 08:32:06;;;;;;;2.80;1.90;;;;;;;;;;5136343;27;20604;-68
2021/06/29 08:34:34;;;;;;;2.97;2.08;;;;;;;;;;5136110;27;20220;-68
2021/06/29 08:37:02;;;;;;;3.75;2.10;;;;;;;;;;5135743;27;20780;-69
2021/06/29 08:39:31;;;;;;;2.42;2.13;;;;;;;;;;5135679;27;20202;-68
2021/06/29 08:41:59;;;;;;;2.50;1.98;;;;;;;;;;5135683;27;20198;-68
2021/06/29 08:44:32;;;;;;;4.63;2.30;;;;;;;;;;5135761;27;20189;-68
2021/06/29 08:47:00;;;;;;;2.35;2.15;;;;;;;;;;5135634;27;20289;-68
2021/06/29 08:49:29;;;;;;;2.50;2.30;;;;;;;;;;5135560;27;20222;-68
2021/06/29 08:51:58;;;;;;;3.20;2.50;;;;;;;;;;5135468;27;20256;-68
2021/06/29 08:54:26;;;;;;;3.15;2.40;;;;;;;;;;5135768;27;20201;-69
2021/06/29 08:56:54;;;;;;;3.45;2.30;;;;;;;;;;5135410;27;20298;-67
2021/06/29 08:59:23;;;;;;;2.60;2.40;;;;;;;;;;5129919;27;20283;-67
2021/06/29 09:01:51;;;;;;;3.53;2.30;;;;;;;;;;5114519;28;20214;-68
2021/06/29 09:04:34;;;;;;;3.08;2.30;;;;;;;;;;5113827;28;20199;-68
2021/06/29 09:07:16;;;;;;;3.85;2.50;;;;;;;;;;5113814;28;20195;-69
2021/06/29 09:09:48;;;;;;;4.05;2.50;;;;;;;;;;5114805;28;20219;-68
2021/06/29 09:12:39;;;;;;;3.78;2.65;;;;;;;;;;5114876;28;20214;-68
2021/06/29 09:15:27;;;;;;;3.47;2.55;;;;;;;;;;5114623;28;20187;-68
2021/06/29 09:17:57;;;;;;;3.22;2.05;;;;;;;;;;5114691;28;20267;-68
2021/06/29 09:20:26;;;;;;;4.30;2.55;;;;;;;;;;5114620;28;20309;-69
2021/06/29 09:22:56;;;;;;;3.13;2.72;;;;;;;;;;5114339;28;20241;-69
2021/06/29 09:25:26;;;;;;;2.53;2.33;;;;;;;;;;5114731;28;20195;-69
2021/06/29 09:27:55;;;;;;;2.70;2.42;;;;;;;;;;5114454;28;20293;-68
2021/06/29 09:30:30;;;;;;;2.65;2.45;;;;;;;;;;5113931;28;20298;-68
2021/06/29 09:32:59;;;;;;;5.05;2.72;;;;;;;;;;5113689;28;20297;-68
2021/06/29 09:35:28;;;;;;;3.05;2.53;;;;;;;;;;5114257;28;20202;-68
2021/06/29 09:38:01;;;;;;;3.65;2.65;;;;;;;;;;5114976;27;20187;-68
2021/06/29 09:40:30;;;;;;;3.33;2.30;;;;;;;;;;5114275;28;20226;-68
2021/06/29 09:43:12;;;;;;;3.00;2.60;;;;;;;;;;5113839;28;20762;-68
2021/06/29 09:45:44;;;;;;;4.22;2.60;;;;;;;;;;5116826;28;20199;-70
2021/06/29 09:48:13;;;;;;;3.10;2.63;;;;;;;;;;5118996;28;20271;-70
2021/06/29 09:50:46;;;;;;;4.65;2.85;;;;;;;;;;5116669;28;20826;-68
2021/06/29 09:53:17;;;;;;;3.67;2.33;;;;;;;;;;5113743;28;20699;-68
2021/06/29 09:55:47;;;;;;;3.75;2.70;;;;;;;;;;5106786;28;20560;-68
2021/06/29 09:58:16;;;;;;;3.65;2.72;;;;;;;;;;5113786;28;20295;-69
2021/06/29 10:00:45;;;;;;;2.83;2.50;;;;;;;;;;5113284;28;20226;-68
2021/06/29 10:03:17;;;;;;;3.83;2.53;;;;;;;;;;5113571;28;20206;-68
2021/06/29 10:05:45;;;;;;;3.13;2.88;;;;;;;;;;5113619;28;20402;-70
2021/06/29 10:08:22;;;;;;;3.28;2.65;;;;;;;;;;5113380;28;20199;-70
2021/06/29 10:10:50;;;;;;;2.83;2.47;;;;;;;;;;5107040;28;20198;-69
2021/06/29 10:13:19;;;;;;;2.78;2.55;;;;;;;;;;5094600;28;20723;-68
2021/06/29 10:15:47;;;;;;;4.80;2.78;;;;;;;;;;5092663;28;20196;-69
2021/06/29 10:18:16;;;;;;;3.08;2.80;;;;;;;;;;5092875;28;20682;-67
2021/06/29 10:20:52;;;;;;;4.47;3.00;;;;;;;;;;5093305;28;20311;-69
2021/06/29 10:23:22;;;;;;;3.22;2.92;;;;;;;;;;5093076;28;20562;-69
2021/06/29 10:25:50;;;;;;;2.92;2.72;;;;;;;;;;5097867;28;20290;-69
2021/06/29 10:28:19;;;;;;;3.17;2.90;;;;;;;;;;5113027;28;20712;-69
2021/06/29 10:30:47;;;;;;;3.08;2.88;;;;;;;;;;5112854;28;20624;-69
2021/06/29 10:33:16;;;;;;;2.70;2.50;;;;;;;;;;5112812;28;20205;-69
2021/06/29 10:35:45;;;;;;;2.35;2.15;;;;;;;;;;5102167;28;20274;-69
2021/06/29 10:38:15;;;;;;;2.58;2.45;;;;;;;;;;5101542;28;20223;-68
2021/06/29 10:40:45;;;;;;;3.03;2.72;;;;;;;;;;5101778;28;20208;-68
2021/06/29 10:43:13;;;;;;;3.38;2.78;;;;;;;;;;5101357;28;20282;-68
2021/06/29 10:45:41;;;;;;;3.85;3.00;;;;;;;;;;5094939;28;20283;-68
2021/06/29 10:48:23;;;;;;;3.13;2.92;;;;;;;;;;5101687;28;20206;-68
2021/06/29 10:50:52;;;;;;;2.97;2.75;;;;;;;;;;5128209;28;20253;-71
2021/06/29 10:53:34;;;;;;;3.30;2.85;;;;;;;;;;5133312;28;20226;-68
2021/06/29 10:56:04;;;;;;;3.15;2.95;;;;;;;;;;5124852;28;20222;-69
2021/06/29 10:58:37;;;;;;;3.63;3.15;;;;;;;;;;5113061;28;20512;-69
2021/06/29 11:01:24;;;;;;;3.50;3.20;;;;;;;;;;5132402;28;20305;-70
2021/06/29 11:03:54;;;;;;;3.17;2.88;;;;;;;;;;5130199;28;20203;-75
2021/06/29 11:06:33;;;;;;;3.50;3.20;;;;;;;;;;5109934;28;20654;-75
2021/06/29 11:09:01;;;;;;;3.42;3.13;;;;;;;;;;5109846;28;20234;-74
2021/06/29 11:11:31;;;;;;;3.45;3.15;;;;;;;;;;5109828;28;20298;-76
2021/06/29 11:13:59;;;;;;;3.55;3.35;;;;;;;;;;5109723;28;20607;-76
2021/06/29 11:16:47;;;;;;;3.42;3.22;;;;;;;;;;5109724;28;20635;-75
2021/06/29 11:19:15;;;;;;;3.55;3.25;;;;;;;;;;5109875;28;20226;-66
2021/06/29 11:21:43;;;;;;;4.25;3.42;;;;;;;;;;5108335;28;20222;-68
2021/06/29 11:24:30;;;;;;;3.67;3.38;;;;;;;;;;5108401;28;20286;-63
2021/06/29 11:27:00;;;;;;;3.92;3.50;;;;;;;;;;5110529;28;20194;-63
2021/06/29 11:29:37;;;;;;;4.43;4.03;;;;;;;;;;5113745;28;20202;-64
2021/06/29 11:32:25;;;;;;;3.42;3.22;;;;;;;;;;5115868;27;20620;-63
2021/06/29 11:34:53;;;;;;;4.18;3.88;;;;;;;;;;5128388;27;20191;-70
2021/06/29 11:37:21;;;;;;;3.63;3.30;;;;;;;;;;5133841;27;20286;-66
2021/06/29 11:40:00;;;;;;;4.35;3.60;;;;;;;;;;5131663;27;20267;-66
2021/06/29 11:42:31;;;;;;;5.18;3.35;;;;;;;;;;5113504;28;20246;-63
2021/06/29 11:45:04;;;;;;;3.92;3.63;;;;;;;;;;5113200;28;20227;-65
2021/06/29 11:47:37;;;;;;;3.60;3.15;;;;;;;;;;5113105;28;20230;-64
2021/06/29 11:50:15;;;;;;;4.07;3.78;;;;;;;;;;5130057;27;20237;-67
2021/06/29 11:52:43;;;;;;;3.70;3.40;;;;;;;;;;5133460;27;20175;-69
2021/06/29 11:55:17;;;;;;;3.15;2.85;;;;;;;;;;5133464;27;20201;-67
2021/06/29 11:57:47;;;;;;;3.67;3.38;;;;;;;;;;5133615;27;20270;-70
2021/06/29 12:00:35;;;;;;;3.80;3.50;;;;;;;;;;5133368;27;20179;-70
2021/06/29 12:03:06;;;;;;;3.50;3.28;;;;;;;;;;5133617;27;20235;-67
2021/06/29 12:05:35;;;;;;;3.53;3.22;;;;;;;;;;5129977;27;20628;-71
2021/06/29 12:08:06;;;;;;;3.05;2.85;;;;;;;;;;5112302;28;20324;-74
2021/06/29 12:10:35;;;;;;;2.70;2.50;;;;;;;;;;5112625;27;20238;-74
2021/06/29 12:13:05;;;;;;;3.13;2.88;;;;;;;;;;5112747;28;20290;-67
2021/06/29 12:15:35;;;;;;;4.22;3.22;;;;;;;;;;5112391;28;20188;-67
2021/06/29 12:18:04;;;;;;;3.42;3.20;;;;;;;;;;5112306;28;20315;-67
2021/06/29 12:20:33;;;;;;;3.45;3.00;;;;;;;;;;5112223;28;20666;-68
2021/06/29 12:23:03;;;;;;;5.55;3.40;;;;;;;;;;5111558;28;20554;-69
2021/06/29 12:25:32;;;;;;;4.10;3.30;;;;;;;;;;5112598;28;20298;-61
2021/06/29 12:28:01;;;;;;;3.72;3.40;;;;;;;;;;5112181;28;20808;-62
2021/06/29 12:30:33;;;;;;;3.47;3.25;;;;;;;;;;5112064;28;20203;-61
2021/06/29 12:33:12;;;;;;;3.63;3.33;;;;;;;;;;5112628;28;20623;-74
2021/06/29 12:35:40;;;;;;;3.95;3.65;;;;;;;;;;5112152;28;20278;-67
2021/06/29 12:38:15;;;;;;;3.63;3.30;;;;;;;;;;5111407;28;20211;-73
2021/06/29 12:40:45;;;;;;;3.90;3.60;;;;;;;;;;5124156;27;20186;-67
2021/06/29 12:43:24;;;;;;;4.47;3.28;;;;;;;;;;5132645;27;20240;-68
2021/06/29 12:45:54;;;;;;;4.00;3.65;;;;;;;;;;5132220;27;20218;-68
2021/06/29 12:48:22;;;;;;;3.67;3.47;;;;;;;;;;5132635;27;20295;-71
2021/06/29 12:50:58;;;;;;;3.88;3.65;;;;;;;;;;5132227;27;20318;-70
2021/06/29 12:53:27;;;;;;;3.90;3.60;;;;;;;;;;5130744;27;20224;-68
2021/06/29 12:56:16;;;;;;;3.92;3.55;;;;;;;;;;5132084;27;20294;-66
2021/06/29 12:58:46;;;;;;;4.10;3.80;;;;;;;;;;5132079;27;20183;-66
2021/06/29 13:01:15;;;;;;;3.90;3.60;;;;;;;;;;5131801;27;20236;-66
2021/06/29 13:03:45;;;;;;;4.25;3.90;;;;;;;;;;5131747;27;20271;-64
2021/06/29 13:06:15;;;;;;;4.00;3.60;;;;;;;;;;5131960;27;20210;-66
2021/06/29 13:08:43;;;;;;;4.90;4.53;;;;;;;;;;5131640;27;20297;-67
2021/06/29 13:11:13;;;;;;;4.55;4.15;;;;;;;;;;5129884;27;20202;-66
2021/06/29 13:13:42;;;;;;;4.22;3.90;;;;;;;;;;5132018;27;20313;-68
2021/06/29 13:16:22;;;;;;;4.35;4.05;;;;;;;;;;5131422;27;20290;-66
2021/06/29 13:18:50;;;;;;;5.13;4.72;;;;;;;;;;5131876;27;20595;-66
2021/06/29 13:21:20;;;;;;;4.85;4.45;;;;;;;;;;5131637;27;20200;-66
2021/06/29 13:23:59;;;;;;;5.55;5.15;;;;;;;;;;5130953;27;20309;-67
2021/06/29 13:26:28;;;;;;;5.32;4.93;;;;;;;;;;5143450;27;20914;-65
2021/06/29 13:28:58;;;;;;;7.43;5.57;;;;;;;;;;5147452;27;20224;-66
2021/06/29 13:31:28;;;;;;;6.32;5.72;;;;;;;;;;5151764;27;20288;-67
2021/06/29 13:33:57;;;;;;;6.20;5.60;;;;;;;;;;5151782;27;20222;-64
2021/06/29 13:36:29;;;;;;;5.88;5.43;;;;;;;;;;5150456;27;20230;-64
2021/06/29 13:38:58;;;;;;;6.53;5.97;;;;;;;;;;5151743;27;20202;-61
2021/06/29 13:41:34;;;;;;;6.18;5.57;;;;;;;;;;5133966;27;20294;-60
2021/06/29 13:44:13;;;;;;;5.90;5.35;;;;;;;;;;5131105;27;20228;-65
2021/06/29 13:46:43;;;;;;;5.13;4.82;;;;;;;;;;5131118;27;20662;-66
2021/06/29 13:49:15;;;;;;;5.00;4.60;;;;;;;;;;5131020;27;20223;-66
2021/06/29 13:51:43;;;;;;;6.28;5.35;;;;;;;;;;5130761;27;20191;-68
2021/06/29 13:54:15;;;;;;;5.18;4.78;;;;;;;;;;5130882;27;20575;-68
2021/06/29 13:56:45;;;;;;;5.18;4.68;;;;;;;;;;5130559;27;20637;-69
2021/06/29 13:59:29;;;;;;;5.28;4.88;;;;;;;;;;5130469;27;20198;-67
2021/06/29 14:02:27;;;;;;;4.70;4.30;;;;;;;;;;5129494;27;20201;-75
2021/06/29 14:04:56;;;;;;;5.80;5.30;;;;;;;;;;5129730;27;20187;-70
2021/06/29 14:07:24;;;;;;;5.53;4.97;;;;;;;;;;5130612;27;20197;-70
2021/06/29 14:09:53;;;;;;;5.78;4.40;;;;;;;;;;5130661;27;20199;-66
2021/06/29 14:12:24;;;;;;;4.82;4.53;;;;;;;;;;5131910;27;20191;-66
2021/06/29 14:15:04;;;;;;;5.20;4.80;;;;;;;;;;5132791;27;20564;-69
2021/06/29 14:17:33;;;;;;;5.35;4.85;;;;;;;;;;5130864;27;20182;-73
2021/06/29 14:20:02;;;;;;;5.70;5.30;;;;;;;;;;5130213;27;20195;-73
2021/06/29 14:22:30;;;;;;;4.65;4.28;;;;;;;;;;5129510;27;20190;-70
2021/06/29 14:24:58;;;;;;;5.68;5.18;;;;;;;;;;5129859;27;20281;-66
2021/06/29 14:27:26;;;;;;;4.55;4.25;;;;;;;;;;5127556;27;20193;-65
2021/06/29 14:29:55;;;;;;;4.82;4.43;;;;;;;;;;5129555;27;20627;-65
2021/06/29 14:32:23;;;;;;;5.10;4.70;;;;;;;;;;5130106;27;20191;-62
2021/06/29 14:34:52;;;;;;;4.63;4.32;;;;;;;;;;5129996;27;20203;-59
2021/06/29 14:37:20;;;;;;;4.60;4.20;;;;;;;;;;5129645;27;20742;-61
2021/06/29 14:39:49;;;;;;;4.95;4.47;;;;;;;;;;5129230;27;20673;-61
2021/06/29 14:42:18;;;;;;;5.07;4.68;;;;;;;;;;5129938;27;20297;-61
2021/06/29 14:44:47;;;;;;;5.80;4.20;;;;;;;;;;5129611;27;20215;-61
2021/06/29 14:47:15;;;;;;;5.35;4.85;;;;;;;;;;5129822;27;20222;-68
2021/06/29 14:49:43;;;;;;;5.05;4.65;;;;;;;;;;5129378;28;20222;-69
2021/06/29 14:52:14;;;;;;;4.60;4.30;;;;;;;;;;5126634;28;20198;-65
2021/06/29 14:54:42;;;;;;;4.82;4.20;;;;;;;;;;5129093;28;20269;-70
2021/06/29 14:57:10;;;;;;;4.45;4.15;;;;;;;;;;5130086;28;20215;-66
2021/06/29 14:59:39;;;;;;;5.85;4.70;;;;;;;;;;5129838;28;20705;-68